Airfield :
LOGIN :

Register | Disclaimer

   EN    FR    IT 

 










Legend :    VFR   Marginal VFR   IFR   Intensive IFR   Very Intensive IFR
Visi :
Ceiling :
>= 8 km
>= 3000ft
5 to 8 km
1000 to 3000 ft
1500m to 5 km
500 to 1000 ft
800 to 1500m
200 to 500 ft
< 800m
< 200 ft
Symbols :   Thunderstorms  Fog  Heavy snow  Heavy precipitations  Wind > 20 kt
SIGMETs :     Misc.  Thunderstorms  Icing  Turbulence  Mountain Waves  Volcanic Ashes






- Airport Elevation : 436 ft
- IATA code : BTS


LZIB - Bratislava

CURRENT METAR :
  • 301000Z 22009KT 9999 BKN046 03/M04 Q1015 NOSIG

EXPIRED METARs :
  • 300930Z 19010KT 9999 BKN043 00/M03 Q1016 BECMG 27020KT
  • 300900Z 21009KT 9999 SCT044 M00/M03 Q1016 BECMG 27020KT
  • 300830Z 22008KT CAVOK M01/M04 Q1017 BECMG 27020KT
  • 300800Z 22008KT CAVOK M02/M04 Q1018 BECMG 27020KT

TAF TAF LZIB
Valid from the 30 at 06:00 until the 31 at 06:00 UTC


300515Z 3006/3106 24009KT 9999 FEW015 SCT030
TEMPO 3009/3101 27020G40KT
TEMPO 3014/3017 -RA BKN014
TEMPO 3019/3106 -RASN BKN007



MET'MAP, your aeronautical weather chart ! - Copyright ORBIFLY December 2007 - Disclaimer

ORBIFLY MET'MAP TEAM :

Programming & Development : Alexandra Zaïnal
Original concept : Baudouin d'Aumeries
Technical & hardware support : Manuel Goepfert
Assistance : Marc-Olivier Méhu




SOURCES & CREDITS :

   NOAA